createdAt,value
2022-09-03T00:00:09.097Z,13.70
2022-09-03T00:03:20.990Z,13.67
2022-09-03T00:06:10.627Z,13.65
2022-09-03T00:09:07.049Z,13.66
2022-09-03T00:11:53.138Z,13.69
2022-09-03T00:14:34.040Z,13.69
2022-09-03T00:17:18.797Z,13.67
2022-09-03T00:20:22.517Z,13.68
2022-09-03T00:22:55.615Z,13.71
2022-09-03T00:25:52.836Z,13.74
2022-09-03T00:28:30.422Z,13.76
2022-09-03T00:31:27.572Z,13.75
2022-09-03T00:34:06.227Z,13.73
2022-09-03T00:36:42.625Z,13.67
2022-09-03T00:39:15.199Z,13.64
2022-09-03T00:42:30.307Z,13.64
2022-09-03T00:45:21.540Z,13.63
2022-09-03T00:48:28.032Z,13.62
2022-09-03T00:51:42.160Z,13.62
2022-09-03T00:54:18.722Z,13.60
2022-09-03T00:57:37.012Z,13.54
2022-09-03T01:00:14.018Z,13.47
2022-09-03T01:03:00.474Z,13.42
2022-09-03T01:05:54.519Z,13.37
2022-09-03T01:08:46.570Z,13.35
2022-09-03T01:11:49.353Z,13.32
2022-09-03T01:14:44.118Z,13.32
2022-09-03T01:17:45.956Z,13.33
2022-09-03T01:21:03.449Z,13.32
2022-09-03T01:24:18.284Z,13.30
2022-09-03T01:27:13.346Z,13.29
2022-09-03T01:29:49.641Z,13.28
2022-09-03T01:32:37.606Z,13.31
2022-09-03T01:35:16.559Z,13.33
2022-09-03T01:38:30.060Z,13.34
2022-09-03T01:41:32.938Z,13.37
2022-09-03T01:44:48.325Z,13.33
2022-09-03T01:47:48.181Z,13.34
2022-09-03T01:50:27.576Z,13.38
2022-09-03T01:53:29.106Z,13.42
2022-09-03T01:56:50.176Z,13.47
2022-09-03T01:59:59.484Z,13.49
2022-09-03T02:02:29.131Z,13.47
2022-09-03T02:05:09.452Z,13.47
2022-09-03T02:08:03.964Z,13.40
2022-09-03T02:10:40.791Z,13.39
2022-09-03T02:13:23.123Z,13.37
2022-09-03T02:15:53.977Z,13.35
2022-09-03T02:18:41.612Z,13.37
2022-09-03T02:21:10.942Z,13.43
2022-09-03T02:23:42.094Z,13.46
2022-09-03T02:26:13.221Z,13.49
2022-09-03T02:28:41.873Z,13.49
2022-09-03T02:31:10.581Z,13.44
2022-09-03T02:33:44.499Z,13.39
2022-09-03T02:36:16.846Z,13.32
2022-09-03T02:38:46.648Z,13.29
2022-09-03T02:41:15.571Z,13.27
2022-09-03T02:44:20.208Z,13.28
2022-09-03T02:47:08.498Z,13.34
2022-09-03T02:49:36.837Z,13.34
2022-09-03T02:52:12.370Z,13.34
2022-09-03T02:54:41.154Z,13.35
2022-09-03T02:57:13.728Z,13.33
2022-09-03T02:59:44.725Z,13.28
2022-09-03T03:02:14.016Z,13.24
2022-09-03T03:04:42.460Z,13.19
2022-09-03T03:07:10.758Z,13.13
2022-09-03T03:09:39.318Z,13.09
2022-09-03T03:12:08.919Z,13.05
2022-09-03T03:14:37.183Z,13.00
2022-09-03T03:17:05.555Z,12.93
2022-09-03T03:19:33.871Z,12.88
2022-09-03T03:22:02.144Z,12.83
2022-09-03T03:24:30.499Z,12.78
2022-09-03T03:26:59.485Z,12.75
2022-09-03T03:29:28.996Z,12.69
2022-09-03T03:31:57.398Z,12.67
2022-09-03T03:34:25.735Z,12.67
2022-09-03T03:36:54.032Z,12.64
2022-09-03T03:39:22.327Z,12.61
2022-09-03T03:41:52.643Z,12.61
2022-09-03T03:44:21.154Z,12.62
2022-09-03T03:46:49.643Z,12.62
2022-09-03T03:49:19.155Z,12.62
2022-09-03T03:51:47.418Z,12.61
2022-09-03T03:54:17.655Z,12.59
2022-09-03T03:56:46.878Z,12.59
2022-09-03T03:59:23.854Z,12.62
2022-09-03T04:01:55.749Z,12.68
2022-09-03T04:04:24.073Z,12.70
2022-09-03T04:06:52.402Z,12.66
2022-09-03T04:09:20.789Z,12.63
2022-09-03T04:11:50.634Z,12.61
2022-09-03T04:14:18.965Z,12.58
2022-09-03T04:16:47.285Z,12.61
2022-09-03T04:19:15.623Z,12.66
2022-09-03T04:21:44.180Z,12.71
2022-09-03T04:24:12.530Z,12.71
2022-09-03T04:26:40.906Z,12.72
2022-09-03T04:29:10.621Z,12.76
2022-09-03T04:31:39.371Z,12.80
2022-09-03T04:34:09.631Z,12.78
2022-09-03T04:36:37.881Z,12.70
2022-09-03T04:39:06.203Z,12.61
2022-09-03T04:41:34.540Z,12.55
2022-09-03T04:44:03.128Z,12.47
2022-09-03T04:46:34.369Z,12.41
2022-09-03T04:49:03.684Z,12.39
2022-09-03T04:51:32.339Z,12.40
2022-09-03T04:54:02.395Z,12.43
2022-09-03T04:56:35.251Z,12.50
2022-09-03T04:59:09.796Z,12.57
2022-09-03T05:01:40.416Z,12.66
2022-09-03T05:04:09.206Z,12.67
2022-09-03T05:06:38.005Z,12.62
2022-09-03T05:09:07.009Z,12.57
2022-09-03T05:11:35.436Z,12.57
2022-09-03T05:14:06.122Z,12.58
2022-09-03T05:16:34.527Z,12.56
2022-09-03T05:19:06.159Z,12.57
2022-09-03T05:21:38.152Z,12.60
2022-09-03T05:24:06.451Z,12.60
2022-09-03T05:26:39.924Z,12.59
2022-09-03T05:29:08.701Z,12.59
2022-09-03T05:31:39.544Z,12.57
2022-09-03T05:34:08.432Z,12.58
2022-09-03T05:36:38.373Z,12.61
2022-09-03T05:39:07.270Z,12.66
2022-09-03T05:41:35.628Z,12.65
2022-09-03T05:44:04.325Z,12.64
2022-09-03T05:46:34.440Z,12.64
2022-09-03T05:49:06.031Z,12.64
2022-09-03T05:51:36.837Z,12.64
2022-09-03T05:54:05.502Z,12.62
2022-09-03T05:56:35.866Z,12.64
2022-09-03T05:59:07.537Z,12.70
2022-09-03T06:01:51.425Z,12.65
2022-09-03T06:04:21.434Z,12.64
2022-09-03T06:06:50.221Z,12.66
2022-09-03T06:09:23.473Z,12.70
2022-09-03T06:11:54.147Z,12.73
2022-09-03T06:14:23.796Z,12.75
2022-09-03T06:16:53.366Z,12.76
2022-09-03T06:19:21.717Z,12.80
2022-09-03T06:21:50.027Z,12.84
2022-09-03T06:24:28.264Z,12.83
2022-09-03T06:26:57.784Z,12.83
2022-09-03T06:29:26.144Z,12.80
2022-09-03T06:31:55.281Z,12.78
2022-09-03T06:34:27.354Z,12.73
2022-09-03T06:36:55.765Z,12.69
2022-09-03T06:39:25.712Z,12.67
2022-09-03T06:41:55.244Z,12.65
2022-09-03T06:44:28.064Z,12.66
2022-09-03T06:46:56.422Z,12.66
2022-09-03T06:49:26.403Z,12.65
2022-09-03T06:51:54.722Z,12.62
2022-09-03T06:54:23.307Z,12.64
2022-09-03T06:56:51.597Z,12.63
2022-09-03T06:59:19.904Z,12.64
2022-09-03T07:01:48.369Z,12.63
2022-09-03T07:04:19.253Z,12.64
2022-09-03T07:06:48.881Z,12.66
2022-09-03T07:09:19.179Z,12.69
2022-09-03T07:11:48.594Z,12.68
2022-09-03T07:14:21.824Z,12.71
2022-09-03T07:16:50.664Z,12.76
2022-09-03T07:19:20.065Z,12.83
2022-09-03T07:21:50.420Z,12.88
2022-09-03T07:24:22.642Z,12.92
2022-09-03T07:26:51.313Z,12.98
2022-09-03T07:29:21.051Z,13.02
2022-09-03T07:31:52.138Z,13.11
2022-09-03T07:34:25.271Z,13.13
2022-09-03T07:36:55.077Z,13.12
2022-09-03T07:39:23.748Z,13.07
2022-09-03T07:41:52.272Z,13.04
2022-09-03T07:44:20.859Z,13.02
2022-09-03T07:46:51.692Z,13.06
2022-09-03T07:49:22.237Z,13.05
2022-09-03T07:51:54.347Z,13.07
2022-09-03T07:54:24.176Z,13.12
2022-09-03T07:56:53.625Z,13.18
2022-09-03T07:59:23.199Z,13.22
2022-09-03T08:01:51.823Z,13.28
2022-09-03T08:04:22.160Z,13.28
2022-09-03T08:06:55.626Z,13.23
2022-09-03T08:09:24.624Z,13.22
2022-09-03T08:11:53.072Z,13.23
2022-09-03T08:14:22.233Z,13.25
2022-09-03T08:16:50.726Z,13.35
2022-09-03T08:19:19.438Z,13.41
2022-09-03T08:21:47.740Z,13.41
2022-09-03T08:24:21.063Z,13.37
2022-09-03T08:26:52.176Z,13.31
2022-09-03T08:29:21.881Z,13.32
2022-09-03T08:31:50.505Z,13.35
2022-09-03T08:34:19.602Z,13.37
2022-09-03T08:36:48.230Z,13.39
2022-09-03T08:39:16.907Z,13.38
2022-09-03T08:41:51.324Z,13.38
2022-09-03T08:44:47.086Z,13.40
2022-09-03T08:47:41.071Z,13.39
2022-09-03T08:50:24.547Z,13.37
2022-09-03T08:53:23.866Z,13.39
2022-09-03T08:56:11.408Z,13.43
2022-09-03T08:58:44.148Z,13.41
2022-09-03T09:01:49.721Z,13.39
2022-09-03T09:04:48.839Z,13.45
2022-09-03T09:08:14.761Z,13.45
2022-09-03T09:11:15.323Z,13.55
2022-09-03T09:14:09.985Z,13.57
2022-09-03T09:16:53.181Z,13.60
2022-09-03T09:19:50.829Z,13.71
2022-09-03T09:22:35.883Z,13.84
2022-09-03T09:25:14.770Z,13.94
2022-09-03T09:27:59.862Z,13.95
2022-09-03T09:30:33.076Z,13.94
2022-09-03T09:33:01.359Z,13.96
2022-09-03T09:35:29.622Z,14.02
2022-09-03T09:38:00.447Z,14.08
2022-09-03T09:40:41.487Z,14.10
2022-09-03T09:43:21.593Z,14.12
2022-09-03T09:45:53.826Z,14.16
2022-09-03T09:48:37.876Z,14.20
2022-09-03T09:51:21.565Z,14.16
2022-09-03T09:54:22.016Z,14.21
2022-09-03T09:57:05.928Z,14.25
2022-09-03T09:59:38.201Z,14.24
2022-09-03T10:02:22.508Z,14.24
2022-09-03T10:04:51.053Z,14.24
2022-09-03T10:07:33.155Z,14.20
2022-09-03T10:10:16.644Z,14.17
2022-09-03T10:13:01.856Z,14.18
2022-09-03T10:16:03.135Z,14.10
2022-09-03T10:18:56.214Z,14.01
2022-09-03T10:21:51.725Z,13.92
2022-09-03T10:24:51.970Z,13.92
2022-09-03T10:27:21.007Z,14.00
2022-09-03T10:29:49.865Z,14.10
2022-09-03T10:32:39.073Z,14.24
2022-09-03T10:35:35.264Z,14.43
2022-09-03T10:38:34.732Z,14.61
2022-09-03T10:41:44.110Z,14.73
2022-09-03T10:45:00.891Z,14.79
2022-09-03T10:47:49.627Z,14.78
2022-09-03T10:50:23.764Z,14.78
2022-09-03T10:53:22.461Z,14.79
2022-09-03T10:55:59.085Z,14.77
2022-09-03T10:58:38.536Z,14.85
2022-09-03T11:01:57.526Z,14.85
2022-09-03T11:04:52.444Z,15.04
2022-09-03T11:07:24.950Z,15.23
2022-09-03T11:10:30.917Z,15.45
2022-09-03T11:13:16.778Z,15.58
2022-09-03T11:16:02.142Z,15.50
2022-09-03T11:18:51.991Z,15.47
2022-09-03T11:21:30.631Z,15.62
2022-09-03T11:24:22.413Z,15.64
2022-09-03T11:27:16.416Z,15.72
2022-09-03T11:30:08.314Z,15.87
2022-09-03T11:32:57.192Z,15.81
2022-09-03T11:35:37.743Z,15.74
2022-09-03T11:38:23.773Z,15.63
2022-09-03T11:41:05.693Z,15.48
2022-09-03T11:43:34.573Z,15.45
2022-09-03T11:46:14.776Z,15.43
2022-09-03T11:48:52.715Z,15.41
2022-09-03T11:51:33.455Z,15.43
2022-09-03T11:54:07.123Z,15.39
2022-09-03T11:56:36.989Z,15.45
2022-09-03T11:59:14.912Z,15.45
2022-09-03T12:01:47.404Z,15.51
2022-09-03T12:04:18.752Z,15.46
2022-09-03T12:07:23.834Z,15.58
2022-09-03T12:10:19.149Z,15.80
2022-09-03T12:13:14.231Z,15.89
2022-09-03T12:16:31.565Z,15.95
2022-09-03T12:19:19.290Z,16.25
2022-09-03T12:21:49.835Z,16.31
2022-09-03T12:24:20.417Z,16.27
2022-09-03T12:26:49.057Z,16.24
2022-09-03T12:29:27.980Z,16.18
2022-09-03T12:32:06.251Z,16.15
2022-09-03T12:34:34.812Z,16.17
2022-09-03T12:37:03.539Z,16.05
2022-09-03T12:42:30.565Z,16.01
2022-09-03T12:45:12.844Z,16.11
2022-09-03T12:47:42.591Z,16.19
2022-09-03T12:50:20.207Z,16.20
2022-09-03T12:53:00.225Z,16.16
2022-09-03T12:55:38.369Z,16.06
2022-09-03T12:58:23.341Z,15.93
2022-09-03T13:01:09.684Z,15.88
2022-09-03T13:03:55.151Z,15.89
2022-09-03T13:06:28.579Z,15.95
2022-09-03T13:09:06.561Z,15.82
2022-09-03T13:11:39.269Z,15.78
2022-09-03T13:14:14.677Z,15.81
2022-09-03T13:16:45.968Z,15.85
2022-09-03T13:19:20.386Z,15.84
2022-09-03T13:22:19.023Z,15.76
2022-09-03T13:25:05.291Z,15.74
2022-09-03T13:27:57.534Z,15.73
2022-09-03T13:30:58.271Z,15.70
2022-09-03T13:33:38.278Z,15.60
2022-09-03T13:36:32.081Z,15.53
2022-09-03T13:39:07.710Z,15.49
2022-09-03T13:42:07.058Z,15.45
2022-09-03T13:45:06.817Z,15.34
2022-09-03T13:48:09.315Z,15.33
2022-09-03T13:50:59.145Z,15.30
2022-09-03T13:53:44.973Z,15.32
2022-09-03T13:56:58.429Z,15.33
2022-09-03T13:59:51.634Z,15.34
2022-09-03T14:02:52.172Z,15.37
2022-09-03T14:05:24.039Z,15.34
2022-09-03T14:07:58.005Z,15.30
2022-09-03T14:11:06.872Z,15.27
2022-09-03T14:13:47.029Z,15.22
2022-09-03T14:17:10.364Z,15.21
2022-09-03T14:20:05.086Z,15.16
2022-09-03T14:23:13.878Z,15.10
2022-09-03T14:26:00.710Z,15.08
2022-09-03T14:28:41.915Z,15.04
2022-09-03T14:31:17.094Z,15.02
2022-09-03T14:34:18.541Z,15.01
2022-09-03T14:37:40.316Z,15.03
2022-09-03T14:40:22.867Z,15.07
2022-09-03T14:43:25.021Z,15.09
2022-09-03T14:46:46.899Z,15.03
2022-09-03T14:49:36.422Z,15.05
2022-09-03T14:52:26.794Z,15.03
2022-09-03T14:55:17.804Z,15.05
2022-09-03T14:58:10.089Z,15.08
2022-09-03T15:00:57.353Z,15.14
2022-09-03T15:04:25.554Z,15.19
2022-09-03T15:07:31.178Z,15.25
2022-09-03T15:10:13.090Z,15.30
2022-09-03T15:13:09.024Z,15.32
2022-09-03T15:16:01.674Z,15.36
2022-09-03T15:19:01.966Z,15.41
2022-09-03T15:22:09.823Z,15.37
2022-09-03T15:25:05.313Z,15.27
2022-09-03T15:27:56.029Z,15.22
2022-09-03T15:30:34.574Z,15.16
2022-09-03T15:33:37.970Z,15.15
2022-09-03T15:36:22.626Z,15.10
2022-09-03T15:39:13.601Z,15.07
2022-09-03T15:41:57.188Z,15.07
2022-09-03T15:44:34.954Z,15.06
2022-09-03T15:47:44.785Z,15.03
2022-09-03T15:50:53.228Z,14.96
2022-09-03T15:53:39.883Z,14.91
2022-09-03T15:56:28.214Z,14.94
2022-09-03T15:59:15.111Z,14.97
2022-09-03T16:02:55.828Z,14.99
2022-09-03T16:05:39.555Z,14.96
2022-09-03T16:08:13.270Z,14.95
2022-09-03T16:11:03.046Z,14.91
2022-09-03T16:14:08.568Z,14.88
2022-09-03T16:17:04.487Z,14.88
2022-09-03T16:20:26.428Z,14.91
2022-09-03T16:23:06.694Z,14.98
2022-09-03T16:26:00.190Z,15.00
2022-09-03T16:29:12.330Z,14.92
2022-09-03T16:32:01.575Z,14.78
2022-09-03T16:35:03.786Z,14.73
2022-09-03T16:38:00.447Z,14.71
2022-09-03T16:41:02.170Z,14.72
2022-09-03T16:43:58.142Z,14.75
2022-09-03T16:46:58.783Z,14.71
2022-09-03T16:49:58.397Z,14.61
2022-09-03T16:52:59.913Z,14.52
2022-09-03T16:55:53.845Z,14.47
2022-09-03T16:58:57.936Z,14.43
2022-09-03T17:02:42.250Z,14.37
2022-09-03T17:05:36.654Z,14.29
2022-09-03T17:08:24.816Z,14.22
2022-09-03T17:11:04.423Z,14.20
2022-09-03T17:13:50.538Z,14.16
2022-09-03T17:17:05.580Z,14.12
2022-09-03T17:19:54.152Z,14.12
2022-09-03T17:22:50.046Z,14.10
2022-09-03T17:25:38.282Z,14.05
2022-09-03T17:28:24.881Z,14.01
2022-09-03T17:31:18.883Z,13.97
2022-09-03T17:34:19.706Z,13.95
2022-09-03T17:37:16.598Z,13.90
2022-09-03T17:40:15.808Z,13.90
2022-09-03T17:43:15.844Z,13.97
2022-09-03T17:46:11.776Z,14.02
2022-09-03T17:49:00.327Z,14.03
2022-09-03T17:52:03.270Z,13.98
2022-09-03T17:54:45.699Z,13.93
2022-09-03T17:57:46.258Z,13.89
2022-09-03T18:00:59.154Z,13.86
2022-09-03T18:03:50.688Z,13.80
2022-09-03T18:07:00.216Z,13.79
2022-09-03T18:09:42.494Z,13.79
2022-09-03T18:12:34.722Z,13.82
2022-09-03T18:15:38.542Z,13.87
2022-09-03T18:18:27.901Z,13.86
2022-09-03T18:21:25.564Z,13.90
2022-09-03T18:24:58.753Z,13.90
2022-09-03T18:28:09.942Z,13.85
2022-09-03T18:30:56.574Z,13.80
2022-09-03T18:33:44.531Z,13.79
2022-09-03T18:36:32.775Z,13.75
2022-09-03T18:39:48.090Z,13.74
2022-09-03T18:42:40.647Z,13.70
2022-09-03T18:46:05.467Z,13.74
2022-09-03T18:48:55.536Z,13.77
2022-09-03T18:52:01.771Z,13.78
2022-09-03T18:55:19.352Z,13.78
2022-09-03T18:58:58.919Z,13.75
2022-09-03T19:01:57.529Z,13.70
2022-09-03T19:05:06.045Z,13.61
2022-09-03T19:08:27.630Z,13.58
2022-09-03T19:11:50.154Z,13.56
2022-09-03T19:14:59.615Z,13.58
2022-09-03T19:18:19.268Z,13.60
2022-09-03T19:22:04.865Z,13.59
2022-09-03T19:24:51.686Z,13.53
2022-09-03T19:28:30.638Z,13.53
2022-09-03T19:31:26.297Z,13.48
2022-09-03T19:34:15.819Z,13.45
2022-09-03T19:37:33.760Z,13.42
2022-09-03T19:40:48.389Z,13.26
2022-09-03T19:43:51.965Z,13.23
2022-09-03T19:47:12.104Z,13.19
2022-09-03T19:50:16.367Z,13.14
2022-09-03T19:53:46.203Z,13.13
2022-09-03T19:56:47.268Z,13.16
2022-09-03T19:59:42.578Z,13.21
2022-09-03T20:02:29.894Z,13.28
2022-09-03T20:05:24.696Z,13.35
2022-09-03T20:08:13.452Z,13.34
2022-09-03T20:10:45.012Z,13.29
2022-09-03T20:13:20.881Z,13.24
2022-09-03T20:16:15.265Z,13.24
2022-09-03T20:18:52.466Z,13.24
2022-09-03T20:21:48.140Z,13.26
2022-09-03T20:24:58.799Z,13.30
2022-09-03T20:27:41.385Z,13.34
2022-09-03T20:30:31.938Z,13.37
2022-09-03T20:33:11.895Z,13.38
2022-09-03T20:36:24.340Z,13.35
2022-09-03T20:39:03.448Z,13.30
2022-09-03T20:42:05.132Z,13.29
2022-09-03T20:45:23.103Z,13.30
2022-09-03T20:48:23.907Z,13.28
2022-09-03T20:51:16.277Z,13.25
2022-09-03T20:53:56.307Z,13.23
2022-09-03T20:57:00.012Z,13.22
2022-09-03T20:59:37.352Z,13.18
2022-09-03T21:02:36.707Z,13.15
2022-09-03T21:05:20.115Z,13.16
2022-09-03T21:08:00.469Z,13.15
2022-09-03T21:10:44.365Z,13.16
2022-09-03T21:13:46.716Z,13.16
2022-09-03T21:16:44.012Z,13.13
2022-09-03T21:19:53.869Z,13.14
2022-09-03T21:22:38.191Z,13.15
2022-09-03T21:25:15.433Z,13.17
2022-09-03T21:27:57.951Z,13.18
2022-09-03T21:30:27.995Z,13.19
2022-09-03T21:33:07.001Z,13.17
2022-09-03T21:35:58.478Z,13.14
2022-09-03T21:38:36.157Z,13.08
2022-09-03T21:41:38.810Z,13.08
2022-09-03T21:44:20.411Z,13.08
2022-09-03T21:47:02.077Z,13.04
2022-09-03T21:49:38.868Z,12.99
2022-09-03T21:52:45.642Z,13.00
2022-09-03T21:55:51.992Z,13.04
2022-09-03T21:58:59.838Z,13.07
2022-09-03T22:02:24.326Z,13.04
2022-09-03T22:04:54.948Z,13.00
2022-09-03T22:08:05.636Z,13.03
2022-09-03T22:11:46.329Z,13.01
2022-09-03T22:14:17.717Z,12.99
2022-09-03T22:17:15.386Z,12.99
2022-09-03T22:19:45.753Z,12.99
2022-09-03T22:22:26.823Z,13.01
2022-09-03T22:25:19.864Z,13.04
2022-09-03T22:28:42.324Z,13.06
2022-09-03T22:31:52.269Z,13.05
2022-09-03T22:34:35.775Z,13.01
2022-09-03T22:37:29.712Z,12.94
2022-09-03T22:40:19.244Z,12.88
2022-09-03T22:43:25.629Z,12.85
2022-09-03T22:46:18.654Z,12.81
2022-09-03T22:49:35.995Z,12.78
2022-09-03T22:52:13.048Z,12.76
2022-09-03T22:55:02.052Z,12.75
2022-09-03T22:57:37.150Z,12.72
2022-09-03T23:00:10.406Z,12.68
2022-09-03T23:02:41.713Z,12.59
2022-09-03T23:05:52.581Z,12.53
2022-09-03T23:08:39.552Z,12.47
2022-09-03T23:11:25.891Z,12.42
2022-09-03T23:14:12.474Z,12.42
2022-09-03T23:17:14.491Z,12.39
2022-09-03T23:19:50.413Z,12.32
2022-09-03T23:22:40.691Z,12.26
2022-09-03T23:25:20.587Z,12.24
2022-09-03T23:27:58.747Z,12.23
2022-09-03T23:30:27.316Z,12.26
2022-09-03T23:32:59.920Z,12.28
2022-09-03T23:35:35.313Z,12.27
2022-09-03T23:38:13.686Z,12.27
2022-09-03T23:40:49.985Z,12.26
2022-09-03T23:43:48.218Z,12.24
2022-09-03T23:47:04.297Z,12.18
2022-09-03T23:50:08.085Z,12.16
2022-09-03T23:53:23.337Z,12.18
2022-09-03T23:56:48.729Z,12.20
2022-09-03T23:59:53.968Z,12.24
